KCEF/CEF METAR and TAF weather

Enter ICAO airport designator
Station Type Date Time Source
KCEF METAR 2021/02/27 08:56 UTC NOAA

KCEF 270856Z AUTO 00000KT 10SM BKN055 OVC065 M01/M05 A3037 RMK AO2 SLP293 T10091053 57021


Station Type Date Time Source
KCEF Decoded METAR 2021/02/27 08:56 UTC NOAA

Chicopee Falls / Westover Air Force Base, MA, United States (KCEF) 42-12N 072-32W 75M
Feb 27, 2021 - 03:56 AM EST / 2021.02.27 0856 UTC
Wind: Calm:0
Visibility: 10 mile(s):0
Sky conditions: overcast
Temperature: 30.4 F (-0.9 C)
Dew Point: 22.5 F (-5.3 C)
Relative Humidity: 72%
Pressure (altimeter): 30.37 in. Hg (1028 hPa)
Pressure tendency: 0.06 inches (2.1 hPa) lower than three hours ago
ob: KCEF 270856Z AUTO 00000KT 10SM BKN055 OVC065 M01/M05 A3037 RMK AO2 SLP293 T10091053 57021
cycle: 9

Station Type Date Time Source
KCEF TAF 2021/02/27 04:03 UTC NOAA

TAF TAF KCEF 270400Z 2704/2810 VRB06KT 9999 SCT200 QNH3040INS
BECMG 2707/2708 17006KT 9999 SCT020 BKN110 WS020/19030KT 510203 QNH3033INS
BECMG 2710/2711 VRB06KT 2400 -SN BR SCT007 BKN010 OVC040 WS010/17030KT 620109 510104 QNH3020INS
BECMG 2714/2715 VRB06KT 3200 -RA BR BKN005 OVC015 WS010/16030KT 620408 510107 QNH2995INS
BECMG 2718/2719 VRB06KT 3200 -DZ BR BKN004 OVC010 WS015/23030KT 620804 510153 QNH2990INS
BECMG 2721/2722 VRB06KT 2400 BR OVC004 WS010/28030KT 510102 QNH2990INS
BECMG 2801/2802 29012KT 9999 NSW FEW007 SCT015 510104 QNH3004INS TX04/2720Z TNM03/2710Z LAST NO
AMDS AFT 2704 NEXT 2712

Example: see airport list